Impacts METAR Board
IDs:

KTPA - Tampa Intl Arpt, FL, US

Updated at: 0000 UTC 23 Mar 2019
Potential Impact None Slight Moderate High
Time 22/12Z 22/13Z 22/14Z 22/15Z 22/16Z 22/17Z 22/18Z 22/19Z 22/20Z 22/21Z 22/22Z 22/23Z 23/00Z
Temp57 62 65 68 71 71 72 72 72 70 69 67 64
Dewpt47 47 47 45 42 47 44 45 44 41 44 43 45
Altim30.09 30.10 30.11 30.12 30.13 30.12 30.10 30.08 30.07 30.07 30.07 30.07 30.09
VIS10 10 10 10 10 10 10 10 10 10 10 10 10
CIG-- -- -- -- -- -- -- -- -- -- -- -- --
CoverCLRCLRCLRCLRFEWFEWCLRCLRCLRCLRCLRCLRCLR
FltCatVFRVFRVFRVFRVFRVFRVFRVFRVFRVFRVFRVFRVFR
WX--------------------------
WDir00210270290270270270250280270290310
WSpd0 0 3 7 11 12 14 11 11 11 13 12 7
WGst-- -- -- -- -- 17 19 -- -- -- 20 -- --
Raw hourly METARs
KTPA 221153Z 00000KT 10SM CLR 14/08 A3009 RMK AO2 SLP188 T01390083 10150 20128 53010
KTPA 221253Z 00000KT 10SM CLR 17/08 A3010 RMK AO2 SLP191 T01670083
KTPA 221353Z 21003KT 10SM CLR 18/08 A3011 RMK AO2 SLP196 T01830083
KTPA 221453Z 27007KT 10SM CLR 20/07 A3012 RMK AO2 SLP200 T02000072 53013
KTPA 221553Z 29011KT 10SM FEW050 22/06 A3013 RMK AO2 SLP201 T02170056
KTPA 221653Z 27012G17KT 10SM FEW050 22/08 A3012 RMK AO2 SLP199 T02170083
KTPA 221753Z 27014G19KT 10SM CLR 22/07 A3010 RMK AO2 SLP192 T02220067 10233 20133 58008
KTPA 221853Z 27011KT 10SM CLR 22/07 A3008 RMK AO2 PK WND 27026/1755 SLP185 T02220072
KTPA 221953Z 25011KT 10SM CLR 22/07 A3007 RMK AO2 SLP181 T02220067
KTPA 222053Z 28011KT 10SM CLR 21/05 A3007 RMK AO2 SLP182 T02110050 55010
KTPA 222153Z 27013G20KT 10SM CLR 21/07 A3007 RMK AO2 SLP183 T02060067
KTPA 222253Z 29012KT 10SM CLR 19/06 A3007 RMK AO2 SLP183 T01940061
KTPA 222353Z 31007KT 10SM CLR 18/07 A3009 RMK AO2 SLP187 T01780072 10239 20178 53005



Page loaded:  00:43 UTC  |   05:43 PM Pacific  |   06:43 PM Mountain  |   07:43 PM Central  |   08:43 PM Eastern

 

ADVISORIES

FORECASTS

FORECASTS

OBSERVATIONS

USER TOOLS

ABOUT US